Wally — WDG9908 — position and weather

sailwx.info

Track history (hours):
 
Tides and Currents Weather Stations Pressure Air Temp Water Temp Dewpoint Dewpoint Depression Visibility Wind Speed Wind Dir Waves Ship Positions

Wally

Owner: Dunn, Michael G, Port Orchard, WA. More information available from US FCC via Universal Licensing System and Coast Guard Vessel Documentation Center.

Last reported at 2018-Aug-13 04:13 UTC. Time now 2018-Aug-14 15:18 UTC.
Position N 47°35' W 122°34'.

Length 12 m.

Type: Pleasure craft. MMSI: 367592410.

Date/timePositionNaut miles runAvg speedWind from/ knotsBaromVisibWave heightAir tempDewpointWater temp
2018-Aug-13 04:13N 47°35' W 122°34'1 3.3
2018-Aug-13 03:59N 47°35' W 122°33'2 4.9
2018-Aug-13 03:30N 47°33' W 122°31'2 4.9
2018-Aug-13 03:00N 47°31' W 122°30'0 0.8
2018-Aug-13 02:28N 47°30' W 122°30'0 0.0
2018-Aug-13 01:58N 47°30' W 122°30'0 0.0
2018-Aug-13 01:28N 47°30' W 122°30'0 0.0
2018-Aug-13 00:58N 47°30' W 122°30'0 0.0
2018-Aug-13 00:28N 47°30' W 122°30'0 0.0
2018-Aug-12 23:58N 47°30' W 122°30'0 0.0
2018-Aug-12 23:28N 47°30' W 122°30'0 0.0
2018-Aug-12 22:58N 47°30' W 122°30'0 0.0
2018-Aug-12 22:28N 47°30' W 122°30'0 0.1
2018-Aug-12 21:58N 47°30' W 122°30'0 0.5
2018-Aug-12 21:26N 47°31' W 122°30'1 2.7
2018-Aug-12 21:00N 47°29' W 122°30'0 0.8
2018-Aug-12 20:30N 47°29' W 122°30'3 5.2
2018-Aug-12 20:00N 47°32' W 122°29'1 1.8
2018-Aug-12 19:30N 47°33' W 122°29'0 0.0
2018-Aug-12 18:57N 47°33' W 122°29'0 0.0
2018-Aug-12 18:30N 47°33' W 122°29'0 0.0
2018-Aug-12 18:00N 47°33' W 122°29'0 0.0
2018-Aug-12 17:27N 47°33' W 122°29'0 0.0
2018-Aug-12 16:51N 47°33' W 122°29'0 0.0
2018-Aug-12 16:30N 47°33' W 122°29'0 0.0
2018-Aug-12 16:00N 47°33' W 122°29'0 0.0
2018-Aug-12 15:30N 47°33' W 122°29'0 0.0
2018-Aug-12 15:00N 47°33' W 122°29'0 0.0
2018-Aug-12 14:30N 47°33' W 122°29'0 0.0
2018-Aug-12 14:00N 47°33' W 122°29'0 0.0
2018-Aug-12 13:30N 47°33' W 122°29'0 0.0
2018-Aug-12 13:00N 47°33' W 122°29'0 0.0
2018-Aug-12 12:30N 47°33' W 122°29'0 0.0
2018-Aug-12 12:00N 47°33' W 122°29'0 0.0
2018-Aug-12 11:30N 47°33' W 122°29'0 0.0
2018-Aug-12 11:00N 47°33' W 122°29'0 0.0
2018-Aug-12 10:30N 47°33' W 122°29'0 0.0
2018-Aug-12 09:57N 47°33' W 122°29'0 0.0
2018-Aug-12 09:30N 47°33' W 122°29'0 0.0
2018-Aug-12 09:00N 47°33' W 122°29'0 0.0
2018-Aug-12 08:30N 47°33' W 122°29'0 0.0
2018-Aug-12 08:00N 47°33' W 122°29'0 0.0
2018-Aug-12 07:30N 47°33' W 122°29'0 0.0
2018-Aug-12 07:00N 47°33' W 122°29'0 0.0
2018-Aug-12 06:30N 47°33' W 122°29'0 0.0
2018-Aug-12 05:57N 47°33' W 122°29'0 0.0
2018-Aug-12 05:30N 47°33' W 122°29'0 0.0
2018-Aug-12 05:00N 47°33' W 122°29'0 0.0
2018-Aug-12 04:30N 47°33' W 122°29'0 0.0
2018-Aug-12 04:00N 47°33' W 122°29'0 0.0
2018-Aug-12 03:30N 47°33' W 122°29'0 0.0
2018-Aug-12 03:00N 47°33' W 122°29'0 0.0
2018-Aug-12 02:30N 47°33' W 122°29'0 0.0
2018-Aug-12 02:00N 47°33' W 122°29'0 0.0
2018-Aug-12 01:30N 47°33' W 122°29'0 0.0
2018-Aug-12 00:54N 47°33' W 122°29'0 0.0
2018-Aug-12 00:27N 47°33' W 122°29'0 0.0
2018-Aug-12 00:00N 47°33' W 122°29'0 0.0
2018-Aug-11 23:30N 47°33' W 122°29'0 0.0
2018-Aug-11 23:00N 47°33' W 122°29'0 0.0
2018-Aug-11 22:30N 47°33' W 122°29'0 0.0
2018-Aug-11 22:00N 47°33' W 122°29'0 0.0
2018-Aug-11 21:30N 47°33' W 122°29'0 0.0
2018-Aug-11 21:00N 47°33' W 122°29'0 0.0
2018-Aug-11 19:08N 47°33' W 122°29'0 0.0
2018-Aug-11 18:59N 47°33' W 122°29'0 0.9
2018-Aug-11 18:29N 47°33' W 122°29'0 0.8
2018-Aug-11 17:57N 47°33' W 122°29'2 5.6
2018-Aug-11 17:30N 47°30' W 122°29'1 1.9
2018-Aug-11 16:59N 47°29' W 122°29'1 3.0
2018-Aug-11 16:30N 47°31' W 122°29'3 5.6
2018-Aug-11 16:00N 47°33' W 122°31'  
Track history (hours):
 
Tides and Currents Weather Stations Pressure Air Temp Water Temp Dewpoint Dewpoint Depression Visibility Wind Speed Wind Dir Waves Ship Positions

Wally

Owner: Dunn, Michael G, Port Orchard, WA. More information available from US FCC via Universal Licensing System and Coast Guard Vessel Documentation Center.

Last reported at 2018-Aug-13 04:13 UTC. Time now 2018-Aug-14 15:18 UTC.
Position N 47°35' W 122°34'.

Length 12 m.

Type: Pleasure craft. MMSI: 367592410.

Date/timePositionNaut miles runAvg speedWind from/ knotsBaromVisibWave heightAir tempDewpointWater temp
2018-Aug-13 04:13N 47°35' W 122°34'1 3.3
2018-Aug-13 03:59N 47°35' W 122°33'2 4.9
2018-Aug-13 03:30N 47°33' W 122°31'2 4.9
2018-Aug-13 03:00N 47°31' W 122°30'0 0.8
2018-Aug-13 02:28N 47°30' W 122°30'0 0.0
2018-Aug-13 01:58N 47°30' W 122°30'0 0.0
2018-Aug-13 01:28N 47°30' W 122°30'0 0.0
2018-Aug-13 00:58N 47°30' W 122°30'0 0.0
2018-Aug-13 00:28N 47°30' W 122°30'0 0.0
2018-Aug-12 23:58N 47°30' W 122°30'0 0.0
2018-Aug-12 23:28N 47°30' W 122°30'0 0.0
2018-Aug-12 22:58N 47°30' W 122°30'0 0.0
2018-Aug-12 22:28N 47°30' W 122°30'0 0.1
2018-Aug-12 21:58N 47°30' W 122°30'0 0.5
2018-Aug-12 21:26N 47°31' W 122°30'1 2.7
2018-Aug-12 21:00N 47°29' W 122°30'0 0.8
2018-Aug-12 20:30N 47°29' W 122°30'3 5.2
2018-Aug-12 20:00N 47°32' W 122°29'1 1.8
2018-Aug-12 19:30N 47°33' W 122°29'0 0.0
2018-Aug-12 18:57N 47°33' W 122°29'0 0.0
2018-Aug-12 18:30N 47°33' W 122°29'0 0.0
2018-Aug-12 18:00N 47°33' W 122°29'0 0.0
2018-Aug-12 17:27N 47°33' W 122°29'0 0.0
2018-Aug-12 16:51N 47°33' W 122°29'0 0.0
2018-Aug-12 16:30N 47°33' W 122°29'0 0.0
2018-Aug-12 16:00N 47°33' W 122°29'0 0.0
2018-Aug-12 15:30N 47°33' W 122°29'0 0.0
2018-Aug-12 15:00N 47°33' W 122°29'0 0.0
2018-Aug-12 14:30N 47°33' W 122°29'0 0.0
2018-Aug-12 14:00N 47°33' W 122°29'0 0.0
2018-Aug-12 13:30N 47°33' W 122°29'0 0.0
2018-Aug-12 13:00N 47°33' W 122°29'0 0.0
2018-Aug-12 12:30N 47°33' W 122°29'0 0.0
2018-Aug-12 12:00N 47°33' W 122°29'0 0.0
2018-Aug-12 11:30N 47°33' W 122°29'0 0.0
2018-Aug-12 11:00N 47°33' W 122°29'0 0.0
2018-Aug-12 10:30N 47°33' W 122°29'0 0.0
2018-Aug-12 09:57N 47°33' W 122°29'0 0.0
2018-Aug-12 09:30N 47°33' W 122°29'0 0.0
2018-Aug-12 09:00N 47°33' W 122°29'0 0.0
2018-Aug-12 08:30N 47°33' W 122°29'0 0.0
2018-Aug-12 08:00N 47°33' W 122°29'0 0.0
2018-Aug-12 07:30N 47°33' W 122°29'0 0.0
2018-Aug-12 07:00N 47°33' W 122°29'0 0.0
2018-Aug-12 06:30N 47°33' W 122°29'0 0.0
2018-Aug-12 05:57N 47°33' W 122°29'0 0.0
2018-Aug-12 05:30N 47°33' W 122°29'0 0.0
2018-Aug-12 05:00N 47°33' W 122°29'0 0.0
2018-Aug-12 04:30N 47°33' W 122°29'0 0.0
2018-Aug-12 04:00N 47°33' W 122°29'0 0.0
2018-Aug-12 03:30N 47°33' W 122°29'0 0.0
2018-Aug-12 03:00N 47°33' W 122°29'0 0.0
2018-Aug-12 02:30N 47°33' W 122°29'0 0.0
2018-Aug-12 02:00N 47°33' W 122°29'0 0.0
2018-Aug-12 01:30N 47°33' W 122°29'0 0.0
2018-Aug-12 00:54N 47°33' W 122°29'0 0.0
2018-Aug-12 00:27N 47°33' W 122°29'0 0.0
2018-Aug-12 00:00N 47°33' W 122°29'0 0.0
2018-Aug-11 23:30N 47°33' W 122°29'0 0.0
2018-Aug-11 23:00N 47°33' W 122°29'0 0.0
2018-Aug-11 22:30N 47°33' W 122°29'0 0.0
2018-Aug-11 22:00N 47°33' W 122°29'0 0.0
2018-Aug-11 21:30N 47°33' W 122°29'0 0.0
2018-Aug-11 21:00N 47°33' W 122°29'0 0.0
2018-Aug-11 19:08N 47°33' W 122°29'0 0.0
2018-Aug-11 18:59N 47°33' W 122°29'0 0.9
2018-Aug-11 18:29N 47°33' W 122°29'0 0.8
2018-Aug-11 17:57N 47°33' W 122°29'2 5.6
2018-Aug-11 17:30N 47°30' W 122°29'1 1.9
2018-Aug-11 16:59N 47°29' W 122°29'1 3.0
2018-Aug-11 16:30N 47°31' W 122°29'3 5.6
2018-Aug-11 16:00N 47°33' W 122°31'  

Dump ship's entire track history